Time;durP1;ratioP1;P1;durP2;ratioP2;P2;SDS_P1;SDS_P2;PMS_P1;PMS_P2;Temp;Humidity;BMP_temperature;BMP_pressure;BME280_temperature;BME280_humidity;BME280_pressure;Samples;Min_cycle;Max_cycle;Signal;HPM_P1;HPM_P2
2024/01/17 00:00:35;;;;;;;8.13;4.45;;;0.50;99.90;;;;;;5114852;28;20522;-44
2024/01/17 00:03:01;;;;;;;15.48;5.32;;;0.50;99.90;;;;;;5113779;28;20034;-40
2024/01/17 00:05:27;;;;;;;8.68;4.57;;;0.40;99.90;;;;;;5114702;28;20543;-56
2024/01/17 00:07:53;;;;;;;10.98;5.28;;;0.50;99.90;;;;;;5113797;28;20141;-55
2024/01/17 00:10:18;;;;;;;16.45;5.63;;;0.40;99.90;;;;;;5114454;28;20052;-56
2024/01/17 00:12:44;;;;;;;12.73;5.60;;;0.30;99.90;;;;;;5104733;28;20543;-55
2024/01/17 00:15:10;;;;;;;15.70;5.97;;;0.40;99.90;;;;;;5094182;28;20099;-54
2024/01/17 00:17:36;;;;;;;11.23;6.00;;;0.30;99.90;;;;;;5094101;28;20361;-56
2024/01/17 00:20:01;;;;;;;16.85;6.55;;;0.30;99.90;;;;;;5094073;28;20051;-54
2024/01/17 00:22:27;;;;;;;11.75;5.82;;;0.30;99.90;;;;;;5094001;28;20395;-55
2024/01/17 00:24:53;;;;;;;11.77;5.25;;;0.30;99.90;;;;;;5094515;28;20093;-56
2024/01/17 00:27:23;;;;;;;14.02;6.30;;;0.30;99.90;;;;;;5093975;28;20055;-56
2024/01/17 00:29:48;;;;;;;13.50;6.15;;;0.30;99.90;;;;;;5094234;28;20031;-57
2024/01/17 00:32:15;;;;;;;15.48;7.47;;;0.30;99.90;;;;;;5094011;28;20028;-55
2024/01/17 00:34:41;;;;;;;13.80;6.18;;;0.40;99.90;;;;;;5094046;28;20570;-54
2024/01/17 00:37:09;;;;;;;14.18;6.25;;;0.30;99.90;;;;;;5109702;27;20119;-56
2024/01/17 00:39:34;;;;;;;18.70;5.72;;;0.20;99.90;;;;;;5093696;28;20024;-56
2024/01/17 00:42:00;;;;;;;11.68;6.10;;;0.30;99.90;;;;;;5110739;28;20033;-52
2024/01/17 00:44:28;;;;;;;17.50;5.63;;;0.30;99.90;;;;;;5112702;28;20032;-54
2024/01/17 00:46:53;;;;;;;12.15;6.20;;;0.30;99.90;;;;;;5113822;28;20024;-55
2024/01/17 00:49:19;;;;;;;12.63;5.10;;;0.20;99.90;;;;;;5113078;28;20076;-43
2024/01/17 00:51:45;;;;;;;10.90;5.93;;;0.30;99.90;;;;;;5113771;28;20024;-42
2024/01/17 00:54:10;;;;;;;12.50;5.90;;;0.30;99.90;;;;;;5113828;28;20043;-40
2024/01/17 00:56:37;;;;;;;15.20;6.53;;;0.30;99.90;;;;;;5113634;28;20020;-43
2024/01/17 00:59:03;;;;;;;13.10;6.60;;;0.20;99.90;;;;;;5112781;28;20094;-42
2024/01/17 01:01:29;;;;;;;16.75;5.53;;;0.20;99.90;;;;;;5113927;28;20058;-54
2024/01/17 01:03:54;;;;;;;13.75;6.05;;;0.10;99.90;;;;;;5113858;28;20032;-54
2024/01/17 01:06:20;;;;;;;14.60;6.10;;;0.10;99.90;;;;;;5113508;28;20434;-54
2024/01/17 01:08:45;;;;;;;19.83;7.07;;;0.10;99.90;;;;;;5110688;28;20437;-55
2024/01/17 01:11:11;;;;;;;20.20;6.15;;;0.10;99.90;;;;;;5113261;28;20078;-55
2024/01/17 01:13:37;;;;;;;19.35;6.60;;;0.10;99.90;;;;;;5113453;28;20156;-55
2024/01/17 01:16:03;;;;;;;16.17;6.03;;;0.10;99.90;;;;;;5095686;28;20028;-56
2024/01/17 01:18:29;;;;;;;16.88;5.82;;;0.10;99.90;;;;;;5093029;28;20542;-57
2024/01/17 01:20:55;;;;;;;11.65;5.55;;;0.00;99.90;;;;;;5093014;28;20028;-54
2024/01/17 01:23:24;;;;;;;10.60;5.72;;;0.00;99.90;;;;;;5092727;28;20499;-62
2024/01/17 01:25:50;;;;;;;14.90;6.63;;;0.00;99.90;;;;;;5092861;28;20484;-54
2024/01/17 01:28:16;;;;;;;15.70;6.32;;;0.00;99.90;;;;;;5091548;28;20415;-54
2024/01/17 01:30:42;;;;;;;15.43;6.25;;;0.00;99.90;;;;;;5092881;28;20035;-54
2024/01/17 01:33:07;;;;;;;14.95;6.43;;;0.00;99.90;;;;;;5093390;28;20031;-54
2024/01/17 01:35:33;;;;;;;16.83;5.93;;;0.00;99.90;;;;;;5106878;28;20436;-53
2024/01/17 01:37:59;;;;;;;14.18;5.97;;;0.00;99.90;;;;;;5094676;27;20025;-55
2024/01/17 01:40:25;;;;;;;17.00;6.60;;;-0.10;99.90;;;;;;5092779;28;20012;-54
2024/01/17 01:42:50;;;;;;;17.50;7.57;;;-0.10;99.90;;;;;;5091591;28;20492;-54
2024/01/17 01:45:16;;;;;;;18.90;6.70;;;-0.10;99.90;;;;;;5092734;28;20028;-57
2024/01/17 01:47:42;;;;;;;18.88;6.72;;;-0.10;99.90;;;;;;5092742;28;20028;-54
2024/01/17 01:50:11;;;;;;;14.00;6.07;;;-0.10;99.90;;;;;;5110894;28;20032;-40
2024/01/17 01:52:37;;;;;;;;;;;-0.10;99.90;;;;;;5113756;28;20479;-42
2024/01/17 01:55:05;;;;;;;13.70;5.82;;;-0.10;99.90;;;;;;5113089;28;19908;-42
2024/01/17 01:57:31;;;;;;;17.92;5.93;;;-0.10;99.90;;;;;;5113323;28;20025;-41
2024/01/17 01:59:57;;;;;;;12.77;5.88;;;0.00;99.90;;;;;;5113761;28;20097;-44
2024/01/17 02:02:24;;;;;;;17.08;6.65;;;0.00;99.90;;;;;;5117118;28;20499;-47
2024/01/17 02:04:52;;;;;;;19.50;6.93;;;0.10;99.90;;;;;;5116284;28;20034;-41
2024/01/17 02:07:21;;;;;;;16.73;6.18;;;0.10;99.90;;;;;;5096922;28;20038;-43
2024/01/17 02:09:48;;;;;;;17.13;6.70;;;0.00;99.90;;;;;;5096633;28;20511;-41
2024/01/17 02:12:14;;;;;;;17.60;6.55;;;0.00;99.90;;;;;;5096432;28;20084;-43
2024/01/17 02:14:41;;;;;;;15.40;7.03;;;0.10;99.90;;;;;;5096721;28;20532;-43
2024/01/17 02:17:08;;;;;;;17.50;7.33;;;0.10;99.90;;;;;;5096483;28;20019;-40
2024/01/17 02:19:34;;;;;;;10.93;6.05;;;0.10;99.90;;;;;;5096384;28;20031;-43
2024/01/17 02:22:00;;;;;;;17.55;6.03;;;0.10;99.90;;;;;;5096401;28;20035;-46
2024/01/17 02:24:28;;;;;;;17.42;6.07;;;0.10;99.90;;;;;;5096202;28;20028;-68
2024/01/17 02:26:54;;;;;;;25.42;8.25;;;0.10;99.90;;;;;;5096057;28;20032;-45
2024/01/17 02:29:21;;;;;;;21.58;6.05;;;0.00;99.90;;;;;;5096116;28;20388;-44
2024/01/17 02:31:48;;;;;;;15.40;5.97;;;0.00;99.90;;;;;;5094880;28;20024;-42
2024/01/17 02:34:14;;;;;;;12.77;5.43;;;0.10;99.90;;;;;;5096202;28;20025;-42
2024/01/17 02:36:40;;;;;;;13.15;5.50;;;0.00;99.90;;;;;;5111748;27;20035;-43
2024/01/17 02:39:05;;;;;;;11.32;5.88;;;0.00;99.90;;;;;;5096939;28;20021;-41
2024/01/17 02:41:31;;;;;;;18.15;5.40;;;-0.10;99.90;;;;;;5116296;28;20102;-40
2024/01/17 02:43:56;;;;;;;13.55;5.70;;;0.00;99.90;;;;;;5116318;28;20027;-45
2024/01/17 02:46:25;;;;;;;15.65;6.00;;;0.00;99.90;;;;;;5114943;28;20448;-51
2024/01/17 02:48:52;;;;;;;15.35;5.43;;;-0.10;99.90;;;;;;5116116;28;20023;-42
2024/01/17 02:51:17;;;;;;;17.15;6.20;;;-0.10;99.90;;;;;;5116346;28;20486;-41
2024/01/17 02:53:43;;;;;;;15.48;5.63;;;0.00;99.90;;;;;;5116160;28;20024;-42
2024/01/17 02:56:08;;;;;;;8.85;5.60;;;0.00;99.90;;;;;;5113883;28;20016;-43
2024/01/17 02:58:34;;;;;;;12.07;5.47;;;0.10;99.90;;;;;;5116294;28;20047;-52
2024/01/17 03:01:00;;;;;;;17.38;6.47;;;0.10;99.90;;;;;;5116035;28;20035;-42
2024/01/17 03:03:25;;;;;;;12.15;5.13;;;0.10;99.90;;;;;;5114568;28;20024;-42
2024/01/17 03:05:51;;;;;;;13.77;5.85;;;0.10;99.90;;;;;;5095416;28;20476;-41
2024/01/17 03:08:17;;;;;;;22.83;6.35;;;0.10;99.90;;;;;;5095307;28;20028;-43
2024/01/17 03:10:42;;;;;;;12.23;5.53;;;0.20;99.90;;;;;;5095353;28;20551;-54
2024/01/17 03:13:12;;;;;;;11.40;6.13;;;0.20;99.90;;;;;;5094883;28;20096;-56
2024/01/17 03:15:38;;;;;;;13.00;6.32;;;0.20;99.90;;;;;;5094077;28;20024;-54
2024/01/17 03:18:06;;;;;;;11.00;6.15;;;0.20;99.90;;;;;;5095322;28;20119;-55
2024/01/17 03:20:32;;;;;;;9.65;6.05;;;0.10;99.90;;;;;;5095530;28;20433;-63
2024/01/17 03:22:58;;;;;;;15.88;6.45;;;0.10;99.90;;;;;;5095506;28;20032;-70
2024/01/17 03:25:24;;;;;;;17.05;6.78;;;0.00;99.90;;;;;;5095187;28;20488;-56
2024/01/17 03:27:49;;;;;;;18.35;6.05;;;0.00;99.90;;;;;;5095081;28;20035;-55
2024/01/17 03:30:15;;;;;;;12.18;5.70;;;-0.10;99.90;;;;;;5095613;28;20137;-55
2024/01/17 03:32:40;;;;;;;11.95;5.93;;;-0.10;99.90;;;;;;5094897;28;20040;-54
2024/01/17 03:35:06;;;;;;;15.35;6.28;;;-0.20;99.90;;;;;;5097997;28;20016;-55
2024/01/17 03:37:32;;;;;;;12.93;4.82;;;-0.20;99.90;;;;;;5098265;28;20109;-62
2024/01/17 03:39:57;;;;;;;18.95;6.15;;;-0.30;99.90;;;;;;5094846;28;20050;-55
2024/01/17 03:42:23;;;;;;;12.20;4.80;;;-0.30;99.90;;;;;;5094835;28;20081;-48
2024/01/17 03:44:49;;;;;;;9.65;5.80;;;-0.30;99.90;;;;;;5094799;28;20024;-43
2024/01/17 03:47:14;;;;;;;14.15;6.18;;;-0.30;99.90;;;;;;5095252;28;20028;-42
2024/01/17 03:49:40;;;;;;;11.50;5.18;;;-0.30;99.90;;;;;;5094607;28;20039;-43
2024/01/17 03:52:07;;;;;;;11.27;5.65;;;-0.40;99.90;;;;;;5094517;28;20399;-46
2024/01/17 03:54:34;;;;;;;15.00;5.25;;;-0.30;99.90;;;;;;5094802;28;20017;-43
2024/01/17 03:56:59;;;;;;;10.95;5.20;;;-0.40;99.90;;;;;;5094505;28;20020;-40
2024/01/17 03:59:27;;;;;;;10.25;5.20;;;-0.30;99.90;;;;;;5094521;28;20405;-54
2024/01/17 04:01:53;;;;;;;9.45;5.35;;;-0.30;99.90;;;;;;5093115;28;20503;-55
2024/01/17 04:04:18;;;;;;;14.55;5.53;;;-0.40;99.90;;;;;;5110918;28;20027;-55
2024/01/17 04:06:44;;;;;;;18.30;4.78;;;-0.40;99.90;;;;;;5094315;28;20028;-55
2024/01/17 04:09:10;;;;;;;12.05;5.22;;;-0.40;99.90;;;;;;5094249;28;20106;-55
2024/01/17 04:11:36;;;;;;;16.10;5.18;;;-0.30;99.90;;;;;;5093976;28;20125;-54
2024/01/17 04:14:02;;;;;;;12.45;5.03;;;-0.30;99.90;;;;;;5094262;28;20074;-54
2024/01/17 04:16:28;;;;;;;8.70;4.88;;;-0.30;99.90;;;;;;5094115;28;20031;-55
2024/01/17 04:18:53;;;;;;;10.10;4.35;;;-0.40;99.90;;;;;;5094237;28;20030;-56
2024/01/17 04:21:20;;;;;;;11.27;5.07;;;-0.40;99.90;;;;;;5094574;28;20487;-53
2024/01/17 04:23:48;;;;;;;14.15;5.53;;;-0.30;99.90;;;;;;5093894;28;20561;-55
2024/01/17 04:26:24;;;;;;;11.57;5.10;;;-0.30;99.90;;;;;;5093917;28;20024;-52
2024/01/17 04:28:51;;;;;;;20.05;6.93;;;-0.30;99.90;;;;;;5093949;28;20506;-59
2024/01/17 04:31:27;;;;;;;13.75;5.60;;;-0.30;99.90;;;;;;5093868;28;20542;-55
2024/01/17 04:33:54;;;;;;;14.73;5.80;;;-0.30;99.90;;;;;;5093842;28;20020;-54
2024/01/17 04:36:21;;;;;;;11.18;5.05;;;-0.30;99.90;;;;;;5101494;28;20494;-54
2024/01/17 04:38:47;;;;;;;9.80;5.15;;;-0.30;99.90;;;;;;5094297;28;20024;-55
2024/01/17 04:41:14;;;;;;;11.60;4.70;;;-0.20;99.90;;;;;;5093944;28;20119;-55
2024/01/17 04:43:46;;;;;;;13.98;4.68;;;-0.20;99.90;;;;;;5093663;28;20480;-55
2024/01/17 04:46:13;;;;;;;10.82;5.00;;;-0.30;99.90;;;;;;5093642;28;20038;-54
2024/01/17 04:48:40;;;;;;;11.30;4.68;;;-0.30;99.90;;;;;;5093423;28;20024;-52
2024/01/17 04:51:06;;;;;;;14.50;4.47;;;-0.30;99.90;;;;;;5093415;28;20095;-54
2024/01/17 04:53:32;;;;;;;11.52;4.72;;;-0.30;99.90;;;;;;5093497;28;20095;-54
2024/01/17 04:55:59;;;;;;;9.60;5.03;;;-0.40;99.90;;;;;;5094015;28;20084;-55
2024/01/17 04:58:26;;;;;;;11.80;5.78;;;-0.30;99.90;;;;;;5093417;28;20023;-54
2024/01/17 05:00:52;;;;;;;13.13;4.45;;;-0.40;99.90;;;;;;5101004;28;20032;-53
2024/01/17 05:03:17;;;;;;;10.90;4.85;;;-0.40;99.90;;;;;;5113659;28;20027;-54
2024/01/17 05:05:46;;;;;;;16.80;5.18;;;-0.40;99.90;;;;;;5113592;28;20594;-53
2024/01/17 05:08:13;;;;;;;11.93;3.92;;;-0.40;99.90;;;;;;5113516;28;20027;-55
2024/01/17 05:10:43;;;;;;;6.82;3.95;;;-0.50;99.90;;;;;;5113393;28;20050;-54
2024/01/17 05:13:10;;;;;;;10.15;4.35;;;-0.50;99.90;;;;;;5103076;28;20498;-55
2024/01/17 05:15:36;;;;;;;8.63;5.43;;;-0.50;99.90;;;;;;5093368;28;20477;-54
2024/01/17 05:18:02;;;;;;;7.18;4.00;;;-0.50;99.90;;;;;;5093113;28;20028;-54
2024/01/17 05:20:27;;;;;;;6.82;4.45;;;-0.50;99.90;;;;;;5093012;28;20024;-41
2024/01/17 05:22:53;;;;;;;9.32;4.20;;;-0.50;99.90;;;;;;5093041;28;20479;-44
2024/01/17 05:25:18;;;;;;;9.85;4.88;;;-0.50;99.90;;;;;;5093007;28;20073;-43
2024/01/17 05:27:50;;;;;;;13.18;5.07;;;-0.50;99.90;;;;;;5092967;28;20077;-46
2024/01/17 05:30:16;;;;;;;7.90;3.55;;;-0.50;99.90;;;;;;5104392;28;20046;-61
2024/01/17 05:32:42;;;;;;;16.30;5.05;;;-0.50;99.90;;;;;;5113230;28;20391;-40
2024/01/17 05:35:08;;;;;;;7.88;4.32;;;-0.40;99.90;;;;;;5109454;28;20024;-44
2024/01/17 05:37:33;;;;;;;9.73;4.07;;;-0.40;99.90;;;;;;5092819;28;20410;-45
2024/01/17 05:39:59;;;;;;;11.27;4.30;;;-0.50;99.90;;;;;;5093116;28;20154;-41
2024/01/17 05:42:25;;;;;;;15.38;4.53;;;-0.40;99.90;;;;;;5092824;28;20032;-56
2024/01/17 05:44:51;;;;;;;14.35;3.90;;;-0.40;99.90;;;;;;5093069;28;20028;-41
2024/01/17 05:47:17;;;;;;;10.63;4.40;;;-0.40;99.90;;;;;;5104110;28;20361;-40
2024/01/17 05:49:42;;;;;;;8.07;3.80;;;-0.40;99.90;;;;;;5113061;28;20034;-41
2024/01/17 05:52:08;;;;;;;9.13;4.45;;;-0.30;99.90;;;;;;5113036;28;20028;-42
2024/01/17 05:54:34;;;;;;;17.20;4.80;;;-0.30;99.90;;;;;;5113008;28;20106;-41
2024/01/17 05:57:00;;;;;;;7.43;4.70;;;-0.30;99.90;;;;;;5113080;28;20483;-53
2024/01/17 05:59:26;;;;;;;15.70;4.85;;;-0.30;99.90;;;;;;5103235;28;20496;-54
2024/01/17 06:01:51;;;;;;;14.48;4.57;;;-0.30;99.90;;;;;;5092634;28;20030;-55
2024/01/17 06:04:17;;;;;;;12.95;4.78;;;-0.30;99.90;;;;;;5093172;28;20032;-52
2024/01/17 06:06:43;;;;;;;10.13;4.70;;;-0.30;99.90;;;;;;5092638;28;20539;-55
2024/01/17 06:09:09;;;;;;;12.07;4.47;;;-0.30;99.90;;;;;;5092606;28;20036;-54
2024/01/17 06:11:34;;;;;;;9.93;4.70;;;-0.30;99.90;;;;;;5092335;28;20038;-56
2024/01/17 06:14:00;;;;;;;5.38;3.33;;;-0.30;99.90;;;;;;5092542;28;20069;-54
2024/01/17 06:16:26;;;;;;;13.05;4.00;;;-0.30;99.90;;;;;;5091305;28;20030;-53
2024/01/17 06:18:51;;;;;;;7.15;4.00;;;-0.30;99.90;;;;;;5092461;28;20024;-51
2024/01/17 06:21:17;;;;;;;8.63;4.05;;;-0.40;99.90;;;;;;5093125;28;20031;-54
2024/01/17 06:23:44;;;;;;;13.77;3.72;;;-0.40;99.90;;;;;;5092353;28;20028;-55
2024/01/17 06:26:10;;;;;;;13.18;4.18;;;-0.40;99.90;;;;;;5092661;28;20472;-69
2024/01/17 06:28:35;;;;;;;12.38;3.38;;;-0.50;99.90;;;;;;5092407;28;20031;-53
2024/01/17 06:31:04;;;;;;;8.95;4.07;;;-0.50;99.90;;;;;;5092376;28;20024;-53
2024/01/17 06:33:29;;;;;;;7.00;3.75;;;-0.50;99.90;;;;;;5092322;28;20121;-51
2024/01/17 06:35:57;;;;;;;6.93;4.00;;;-0.60;99.90;;;;;;5100080;28;20028;-53
2024/01/17 06:38:23;;;;;;;8.30;4.05;;;-0.60;99.90;;;;;;5093184;28;20488;-54
2024/01/17 06:40:50;;;;;;;7.00;4.32;;;-0.50;99.90;;;;;;5092413;28;20020;-53
2024/01/17 06:43:16;;;;;;;10.77;4.20;;;-0.60;99.90;;;;;;5092242;28;20035;-54
2024/01/17 06:45:42;;;;;;;8.25;3.30;;;-0.50;99.90;;;;;;5092312;28;20043;-52
2024/01/17 06:48:08;;;;;;;10.57;4.45;;;-0.50;99.90;;;;;;5094538;28;20036;-60
2024/01/17 06:50:34;;;;;;;10.43;3.72;;;-0.50;99.90;;;;;;5095832;28;20108;-42
2024/01/17 06:52:59;;;;;;;11.48;4.40;;;-0.60;99.90;;;;;;5094370;28;20028;-40
2024/01/17 06:55:25;;;;;;;12.15;4.28;;;-0.50;99.90;;;;;;5108110;28;20383;-41
2024/01/17 06:57:51;;;;;;;11.25;4.30;;;-0.50;99.90;;;;;;5116216;28;20026;-44
2024/01/17 07:00:17;;;;;;;6.32;3.85;;;-0.50;99.90;;;;;;5116066;27;20019;-53
2024/01/17 07:02:43;;;;;;;5.95;3.83;;;-0.50;99.90;;;;;;5115846;27;20373;-54
2024/01/17 07:05:09;;;;;;;6.03;3.42;;;-0.50;99.90;;;;;;5115933;28;20097;-52
2024/01/17 07:07:34;;;;;;;9.63;4.53;;;-0.40;99.90;;;;;;5115818;28;20024;-50
2024/01/17 07:10:00;;;;;;;9.98;4.25;;;-0.40;99.90;;;;;;5115479;28;20066;-54
2024/01/17 07:12:26;;;;;;;9.55;3.85;;;-0.50;99.90;;;;;;5114893;28;20028;-54
2024/01/17 07:14:54;;;;;;;9.45;3.53;;;-0.50;99.90;;;;;;5115760;28;20095;-55
2024/01/17 07:17:20;;;;;;;7.65;4.50;;;-0.40;99.90;;;;;;5115640;28;20015;-54
2024/01/17 07:19:45;;;;;;;11.85;5.32;;;-0.50;99.90;;;;;;5115657;28;20027;-53
2024/01/17 07:22:13;;;;;;;6.50;3.80;;;-0.50;99.90;;;;;;5115513;28;20081;-61
2024/01/17 07:24:39;;;;;;;11.27;4.13;;;-0.60;99.90;;;;;;5114318;28;20023;-54
2024/01/17 07:27:04;;;;;;;11.05;4.75;;;-0.60;99.90;;;;;;5114259;28;20032;-51
2024/01/17 07:29:30;;;;;;;9.43;4.03;;;-0.60;99.90;;;;;;5113362;28;20027;-51
2024/01/17 07:31:56;;;;;;;8.95;4.28;;;-0.60;99.90;;;;;;5115645;28;20085;-67
2024/01/17 07:34:22;;;;;;;11.65;4.47;;;-0.50;99.90;;;;;;5115628;28;20479;-53
2024/01/17 07:36:48;;;;;;;8.27;3.42;;;-0.60;99.90;;;;;;5097601;28;20043;-54
2024/01/17 07:39:18;;;;;;;12.02;3.85;;;-0.50;99.90;;;;;;5094882;28;20031;-54
2024/01/17 07:41:44;;;;;;;12.38;4.00;;;-0.50;99.90;;;;;;5095446;28;20052;-55
2024/01/17 07:44:10;;;;;;;8.45;4.07;;;-0.50;99.90;;;;;;5094834;28;20032;-54
2024/01/17 07:46:36;;;;;;;8.55;4.47;;;-0.40;99.90;;;;;;5108382;28;20031;-53
2024/01/17 07:49:02;;;;;;;13.38;4.38;;;-0.40;99.90;;;;;;5115247;28;20497;-54
2024/01/17 07:51:28;;;;;;;13.73;4.20;;;-0.40;99.90;;;;;;5115100;28;20530;-53
2024/01/17 07:53:53;;;;;;;12.23;4.75;;;-0.40;99.90;;;;;;5115261;28;20020;-53
2024/01/17 07:56:19;;;;;;;5.50;3.53;;;-0.40;99.90;;;;;;5114885;28;20016;-54
2024/01/17 07:58:45;;;;;;;10.68;4.32;;;-0.40;99.90;;;;;;5113179;28;20026;-51
2024/01/17 08:01:11;;;;;;;6.50;3.97;;;-0.40;99.90;;;;;;5115127;28;20472;-54
2024/01/17 08:03:36;;;;;;;8.65;4.28;;;-0.50;99.90;;;;;;5113961;28;20034;-54
2024/01/17 08:06:02;;;;;;;7.00;4.18;;;-0.40;99.90;;;;;;5113550;28;20123;-53
2024/01/17 08:08:28;;;;;;;14.30;4.18;;;-0.40;99.90;;;;;;5114678;28;20380;-54
2024/01/17 08:10:54;;;;;;;7.82;4.30;;;-0.40;99.90;;;;;;5113148;28;20092;-52
2024/01/17 08:13:20;;;;;;;8.45;4.30;;;-0.30;99.90;;;;;;5114564;28;20024;-54
2024/01/17 08:15:46;;;;;;;15.77;4.55;;;-0.30;99.90;;;;;;5114531;28;20031;-54
2024/01/17 08:18:13;;;;;;;7.50;3.97;;;-0.20;99.90;;;;;;5114463;28;20020;-56
2024/01/17 08:20:39;;;;;;;12.20;4.68;;;-0.20;99.90;;;;;;5113828;28;20568;-55
2024/01/17 08:23:05;;;;;;;11.52;4.18;;;-0.30;99.90;;;;;;5114434;28;20129;-52
2024/01/17 08:25:32;;;;;;;9.30;4.72;;;-0.20;99.90;;;;;;5114368;28;20031;-52
2024/01/17 08:27:59;;;;;;;11.13;4.38;;;-0.20;99.90;;;;;;5114353;28;20024;-53
2024/01/17 08:30:25;;;;;;;9.75;4.28;;;-0.20;99.90;;;;;;5114909;28;20425;-52
2024/01/17 08:32:53;;;;;;;13.77;4.97;;;-0.10;99.90;;;;;;5106285;28;20081;-54
2024/01/17 08:35:19;;;;;;;6.75;3.65;;;-0.20;99.90;;;;;;5108782;28;20535;-52
2024/01/17 08:37:45;;;;;;;5.10;3.92;;;-0.20;99.90;;;;;;5105471;28;20100;-53
2024/01/17 08:40:11;;;;;;;13.15;3.95;;;-0.10;99.90;;;;;;5114575;28;20059;-53
2024/01/17 08:42:37;;;;;;;7.65;4.55;;;0.00;99.90;;;;;;5108639;28;20027;-54
2024/01/17 08:45:05;;;;;;;8.50;3.80;;;0.00;99.90;;;;;;5093645;28;20484;-54
2024/01/17 08:47:31;;;;;;;6.38;3.92;;;0.10;99.90;;;;;;5093798;28;20493;-51
2024/01/17 08:49:59;;;;;;;8.55;4.03;;;0.10;99.90;;;;;;5096960;28;20080;-54
2024/01/17 08:52:25;;;;;;;11.90;4.00;;;0.00;99.90;;;;;;5113845;28;20027;-50
2024/01/17 08:54:50;;;;;;;8.82;4.00;;;0.10;99.90;;;;;;5105034;28;20035;-54
2024/01/17 08:57:16;;;;;;;19.23;4.65;;;0.10;99.90;;;;;;5093749;28;20071;-54
2024/01/17 08:59:44;;;;;;;17.48;4.35;;;0.10;99.90;;;;;;5093434;28;20028;-54
2024/01/17 09:02:10;;;;;;;14.00;4.68;;;0.10;99.90;;;;;;5093392;28;20442;-40
2024/01/17 09:04:35;;;;;;;7.68;4.10;;;0.20;99.90;;;;;;5105361;27;20023;-59
2024/01/17 09:07:01;;;;;;;6.88;3.80;;;0.20;99.90;;;;;;5113355;28;20024;-43
2024/01/17 09:09:27;;;;;;;5.25;3.60;;;0.30;99.90;;;;;;5111439;28;20391;-45
2024/01/17 09:11:53;;;;;;;10.82;4.13;;;0.30;99.90;;;;;;5095601;28;20031;-40
2024/01/17 09:14:21;;;;;;;9.30;3.95;;;0.30;99.90;;;;;;5093187;28;20020;-48
2024/01/17 09:16:50;;;;;;;5.55;3.97;;;0.40;99.90;;;;;;5093708;28;20476;-41
2024/01/17 09:19:15;;;;;;;9.95;4.25;;;0.40;99.90;;;;;;5104868;27;20023;-45
2024/01/17 09:21:41;;;;;;;5.85;3.63;;;0.50;99.90;;;;;;5115092;27;20028;-40
2024/01/17 09:24:07;;;;;;;14.55;3.72;;;0.50;99.90;;;;;;5098611;28;20131;-66
2024/01/17 09:26:32;;;;;;;10.38;3.80;;;0.50;99.90;;;;;;5099281;28;20042;-40
2024/01/17 09:28:58;;;;;;;8.88;4.20;;;0.50;99.90;;;;;;5093182;28;20032;-43
2024/01/17 09:31:24;;;;;;;5.93;4.13;;;0.50;99.90;;;;;;5091406;28;20023;-41
2024/01/17 09:33:49;;;;;;;9.52;4.13;;;0.50;99.90;;;;;;5103657;28;20024;-42
2024/01/17 09:36:15;;;;;;;13.73;3.95;;;0.60;99.90;;;;;;5109486;28;20103;-51
2024/01/17 09:38:41;;;;;;;7.05;3.15;;;0.60;99.90;;;;;;5093854;28;20024;-53
2024/01/17 09:41:07;;;;;;;7.28;3.78;;;0.70;99.90;;;;;;5108608;28;20016;-55
2024/01/17 09:43:33;;;;;;;10.38;3.83;;;0.70;99.90;;;;;;5092688;28;20103;-54
2024/01/17 09:46:00;;;;;;;6.47;4.38;;;0.70;99.90;;;;;;5092785;28;20107;-56
2024/01/17 09:48:26;;;;;;;9.03;3.87;;;0.70;99.90;;;;;;5092862;28;20515;-53
2024/01/17 09:50:52;;;;;;;8.68;3.72;;;0.70;99.90;;;;;;5092724;28;20028;-53
2024/01/17 09:53:27;;;;;;;10.27;4.40;;;0.80;99.90;;;;;;5092585;28;20060;-55
2024/01/17 09:55:59;;;;;;;11.02;3.58;;;0.80;99.90;;;;;;5092728;28;20495;-55
2024/01/17 09:58:31;;;;;;;9.98;4.07;;;0.80;99.90;;;;;;5092896;28;20439;-54
2024/01/17 10:00:59;;;;;;;13.75;3.17;;;0.90;99.90;;;;;;5096183;28;20031;-54
2024/01/17 10:03:28;;;;;;;5.88;3.05;;;0.90;99.90;;;;;;5102661;28;20365;-55
2024/01/17 10:05:56;;;;;;;10.30;3.85;;;1.00;99.90;;;;;;5091273;28;20099;-55
2024/01/17 10:08:22;;;;;;;6.40;3.67;;;1.00;99.90;;;;;;5092455;28;20491;-53
2024/01/17 10:10:47;;;;;;;8.52;3.88;;;1.10;99.90;;;;;;5095832;28;20047;-56
2024/01/17 10:13:13;;;;;;;9.55;4.35;;;1.10;99.90;;;;;;5098787;28;20125;-53
2024/01/17 10:15:47;;;;;;;6.93;3.45;;;1.10;99.90;;;;;;5092587;28;20038;-54
2024/01/17 10:18:13;;;;;;;6.43;3.80;;;1.10;99.90;;;;;;5096322;28;20024;-54
2024/01/17 10:20:39;;;;;;;9.07;3.90;;;1.10;99.90;;;;;;5092925;28;20446;-53
2024/01/17 10:23:08;;;;;;;11.82;4.18;;;1.10;99.90;;;;;;5096182;28;20032;-55
2024/01/17 10:25:40;;;;;;;9.30;4.30;;;1.20;99.90;;;;;;5096573;28;20058;-55
2024/01/17 10:28:07;;;;;;;7.97;4.15;;;1.20;99.90;;;;;;5096074;28;20058;-55
2024/01/17 10:30:33;;;;;;;9.18;3.60;;;1.30;99.90;;;;;;5095117;28;20028;-55
2024/01/17 10:32:59;;;;;;;9.60;4.35;;;1.30;99.90;;;;;;5077948;28;20430;-54
2024/01/17 10:35:25;;;;;;;16.50;4.90;;;1.30;99.90;;;;;;5104157;28;20081;-45
2024/01/17 10:37:54;;;;;;;10.13;4.15;;;1.30;99.90;;;;;;5097562;28;20548;-64
2024/01/17 10:40:20;;;;;;;7.68;3.42;;;1.30;99.90;;;;;;5095970;28;20028;-46
2024/01/17 10:42:46;;;;;;;8.82;3.67;;;1.40;99.90;;;;;;5096587;28;20024;-46
2024/01/17 10:45:20;;;;;;;6.75;4.07;;;1.40;99.90;;;;;;5098830;28;20027;-45
2024/01/17 10:47:46;;;;;;;8.00;3.05;;;1.60;99.90;;;;;;5095861;28;20028;-49
2024/01/17 10:50:12;;;;;;;10.93;4.15;;;1.60;99.90;;;;;;5095790;28;20028;-58
2024/01/17 10:52:46;;;;;;;13.90;3.80;;;1.60;99.90;;;;;;5099512;28;20039;-42
2024/01/17 10:55:14;;;;;;;20.83;4.40;;;1.60;99.90;;;;;;5095469;28;20028;-43
2024/01/17 10:57:44;;;;;;;7.30;3.53;;;1.70;99.90;;;;;;5102598;28;20776;-41
2024/01/17 11:00:16;;;;;;;8.40;4.35;;;1.70;99.90;;;;;;5098232;28;20048;-46
2024/01/17 11:02:44;;;;;;;13.43;5.22;;;1.80;99.90;;;;;;5095725;28;20561;-42
2024/01/17 11:05:13;;;;;;;7.18;4.45;;;1.80;99.90;;;;;;5095789;28;20060;-41
2024/01/17 11:07:40;;;;;;;8.23;4.60;;;1.80;99.90;;;;;;5095367;28;20107;-46
2024/01/17 11:10:07;;;;;;;9.70;4.15;;;1.80;99.90;;;;;;5101478;28;20395;-45
2024/01/17 11:12:36;;;;;;;10.48;4.43;;;1.90;99.90;;;;;;5114554;28;20038;-46
2024/01/17 11:15:04;;;;;;;12.15;4.20;;;1.90;99.90;;;;;;5095920;28;20472;-45
2024/01/17 11:17:39;;;;;;;7.87;3.77;;;1.90;99.90;;;;;;5095288;28;20476;-44
2024/01/17 11:20:08;;;;;;;7.22;4.07;;;1.90;99.90;;;;;;5095382;28;20035;-54
2024/01/17 11:22:36;;;;;;;9.43;4.47;;;1.90;99.90;;;;;;5097425;28;20032;-54
2024/01/17 11:25:53;;;;;;;7.32;4.30;;;1.80;99.90;;;;;;5100900;28;20476;-54
2024/01/17 11:28:28;;;;;;;10.97;4.57;;;1.80;99.90;;;;;;5111500;27;20040;-53
2024/01/17 11:31:31;;;;;;;10.50;4.00;;;1.80;99.90;;;;;;5098327;28;20273;-55
2024/01/17 11:33:58;;;;;;;12.00;3.97;;;1.80;99.90;;;;;;5110921;28;20031;-55
2024/01/17 11:36:45;;;;;;;9.00;4.15;;;1.80;99.90;;;;;;5095648;28;20099;-54
2024/01/17 11:39:15;;;;;;;4.93;3.35;;;1.80;99.90;;;;;;5102073;28;20031;-67
2024/01/17 11:41:42;;;;;;;12.15;4.32;;;1.80;99.90;;;;;;5114225;28;20035;-55
2024/01/17 11:44:10;;;;;;;13.18;3.33;;;1.90;99.90;;;;;;5112199;28;20156;-54
2024/01/17 11:46:37;;;;;;;13.38;4.60;;;2.00;99.90;;;;;;5109286;28;20468;-55
2024/01/17 11:49:09;;;;;;;7.05;4.18;;;2.00;99.90;;;;;;5094420;28;20035;-57
2024/01/17 11:51:36;;;;;;;13.07;4.53;;;2.10;99.90;;;;;;5108790;28;20459;-59
2024/01/17 11:54:04;;;;;;;9.90;4.30;;;2.20;99.90;;;;;;5114966;28;20391;-57
2024/01/17 11:56:30;;;;;;;9.18;4.55;;;2.20;99.90;;;;;;5094567;28;20024;-55
2024/01/17 11:59:09;;;;;;;6.85;3.97;;;2.20;99.90;;;;;;5094776;28;20035;-56
2024/01/17 12:01:34;;;;;;;11.07;4.32;;;2.30;99.90;;;;;;5097122;28;20029;-55
2024/01/17 12:04:09;;;;;;;9.70;3.95;;;2.30;99.90;;;;;;5114428;28;20028;-56
2024/01/17 12:06:36;;;;;;;11.60;4.65;;;2.30;99.90;;;;;;5103006;28;20016;-55
2024/01/17 12:09:03;;;;;;;10.20;4.60;;;2.30;99.90;;;;;;5094326;28;20024;-54
2024/01/17 12:11:30;;;;;;;10.65;4.03;;;2.30;99.90;;;;;;5093829;28;20079;-56
2024/01/17 12:13:55;;;;;;;10.48;3.75;;;2.30;99.90;;;;;;5094360;28;20052;-56
2024/01/17 12:16:23;;;;;;;8.52;3.90;;;2.30;99.90;;;;;;5093956;28;20062;-56
2024/01/17 12:18:58;;;;;;;13.90;4.57;;;2.30;99.90;;;;;;5102083;28;20019;-55
2024/01/17 12:21:24;;;;;;;8.57;4.57;;;2.30;99.90;;;;;;5112394;27;20031;-54
2024/01/17 12:23:50;;;;;;;9.10;3.88;;;2.40;99.90;;;;;;5111975;28;20447;-54
2024/01/17 12:26:16;;;;;;;8.48;4.32;;;2.40;99.90;;;;;;5114951;28;20012;-56
2024/01/17 12:28:42;;;;;;;9.88;4.70;;;2.40;99.90;;;;;;5106729;28;20479;-56
2024/01/17 12:31:08;;;;;;;7.93;4.13;;;2.40;99.90;;;;;;5094131;28;20488;-50
2024/01/17 12:33:35;;;;;;;11.88;4.15;;;2.40;99.90;;;;;;5093627;28;20028;-48
2024/01/17 12:36:03;;;;;;;7.75;4.15;;;2.40;99.90;;;;;;5094223;28;20116;-41
2024/01/17 12:38:30;;;;;;;10.82;4.60;;;2.50;99.90;;;;;;5093898;28;20545;-50
2024/01/17 12:40:58;;;;;;;10.73;4.53;;;2.60;99.90;;;;;;5093361;28;20024;-43
2024/01/17 12:43:26;;;;;;;9.30;3.22;;;2.60;99.90;;;;;;5095780;28;20024;-44